createdAt,value
2017-10-09T00:02:02.287Z,15.70
2017-10-09T00:04:29.817Z,14.93
2017-10-09T00:06:57.321Z,16.80
2017-10-09T00:09:24.859Z,15.93
2017-10-09T00:11:52.371Z,16.50
2017-10-09T00:14:19.917Z,16.23
2017-10-09T00:16:47.431Z,15.10
2017-10-09T00:19:15.774Z,14.70
2017-10-09T00:21:43.273Z,15.40
2017-10-09T00:24:10.802Z,12.60
2017-10-09T00:26:38.383Z,15.00
2017-10-09T00:29:05.929Z,16.17
2017-10-09T00:31:34.270Z,15.70
2017-10-09T00:34:01.780Z,13.50
2017-10-09T00:36:30.091Z,13.87
2017-10-09T00:38:57.605Z,12.50
2017-10-09T00:41:25.144Z,12.63
2017-10-09T00:43:52.654Z,15.20
2017-10-09T00:46:20.216Z,14.53
2017-10-09T00:48:47.719Z,13.67
2017-10-09T00:51:15.226Z,15.97
2017-10-09T00:53:42.767Z,15.60
2017-10-09T00:56:11.041Z,15.47
2017-10-09T00:58:38.619Z,17.37
2017-10-09T01:01:19.886Z,15.57
2017-10-09T01:03:47.434Z,13.97
2017-10-09T01:06:14.951Z,14.83
2017-10-09T01:08:42.502Z,15.20
2017-10-09T01:11:10.011Z,15.60
2017-10-09T01:13:38.330Z,16.43
2017-10-09T01:16:05.838Z,16.10
2017-10-09T01:18:33.347Z,16.43
2017-10-09T01:21:01.659Z,15.57
2017-10-09T01:23:29.173Z,15.90
2017-10-09T01:25:56.726Z,13.63
2017-10-09T01:28:24.229Z,13.53
2017-10-09T01:30:51.780Z,12.93
2017-10-09T01:33:19.290Z,13.80
2017-10-09T01:35:47.623Z,14.37
2017-10-09T01:38:15.162Z,14.80
2017-10-09T01:40:43.526Z,14.57
2017-10-09T01:43:11.077Z,14.70
2017-10-09T01:45:38.590Z,13.33
2017-10-09T01:48:06.138Z,13.00
2017-10-09T01:50:33.650Z,14.67
2017-10-09T01:53:01.991Z,11.63
2017-10-09T01:55:29.501Z,13.30
2017-10-09T01:57:57.010Z,12.77
2017-10-09T02:00:24.564Z,14.57
2017-10-09T02:02:52.069Z,16.40
2017-10-09T02:05:19.605Z,14.03
2017-10-09T02:07:47.122Z,13.87
2017-10-09T02:10:14.649Z,13.00
2017-10-09T02:12:42.153Z,13.77
2017-10-09T02:15:09.696Z,15.20
2017-10-09T02:17:37.201Z,17.00
2017-10-09T02:20:04.755Z,16.60
2017-10-09T02:22:32.277Z,16.87
2017-10-09T02:25:00.550Z,11.70
2017-10-09T02:27:28.085Z,14.03
2017-10-09T02:29:55.594Z,13.60
2017-10-09T02:32:23.129Z,14.77
2017-10-09T02:34:50.639Z,14.50
2017-10-09T02:37:18.450Z,15.40
2017-10-09T02:39:45.961Z,14.20
2017-10-09T02:42:13.482Z,14.17
2017-10-09T02:44:41.010Z,15.37
2017-10-09T02:47:08.517Z,13.97
2017-10-09T02:49:36.049Z,15.90
2017-10-09T02:52:03.590Z,16.70
2017-10-09T02:54:31.133Z,15.60
2017-10-09T02:56:58.646Z,14.23
2017-10-09T02:59:26.201Z,14.73
2017-10-09T03:01:53.710Z,13.70
2017-10-09T03:04:21.254Z,14.07
2017-10-09T03:06:48.761Z,15.27
2017-10-09T03:09:16.261Z,15.77
2017-10-09T03:11:43.797Z,14.40
2017-10-09T03:14:11.306Z,13.63
2017-10-09T03:16:38.840Z,13.13
2017-10-09T03:19:06.370Z,11.80
2017-10-09T03:21:34.686Z,12.90
2017-10-09T03:27:08.402Z,13.57
2017-10-09T03:29:37.165Z,12.23
2017-10-09T03:32:04.697Z,14.33
2017-10-09T03:34:32.194Z,12.33
2017-10-09T03:36:59.734Z,12.10
2017-10-09T03:39:27.246Z,14.47
2017-10-09T03:41:54.749Z,14.23
2017-10-09T03:44:22.297Z,14.40
2017-10-09T03:46:49.793Z,15.47
2017-10-09T03:49:17.332Z,16.13
2017-10-09T03:51:44.834Z,15.80
2017-10-09T03:54:12.365Z,16.40
2017-10-09T03:56:39.881Z,16.83
2017-10-09T03:59:07.438Z,16.70
2017-10-09T04:01:34.932Z,16.73
2017-10-09T04:04:03.197Z,15.10
2017-10-09T04:06:30.742Z,14.17
2017-10-09T04:08:58.283Z,14.93
2017-10-09T04:11:25.814Z,14.53
2017-10-09T04:13:53.316Z,13.67
2017-10-09T04:16:21.618Z,13.87
2017-10-09T04:18:49.133Z,15.23
2017-10-09T04:21:16.661Z,14.63
2017-10-09T04:23:44.161Z,13.07
2017-10-09T04:26:11.694Z,13.30
2017-10-09T04:28:40.965Z,13.10
2017-10-09T04:31:09.002Z,11.50
2017-10-09T04:33:36.510Z,13.53
2017-10-09T04:36:04.017Z,13.93
2017-10-09T04:38:32.321Z,18.63
2017-10-09T04:40:59.832Z,15.87
2017-10-09T04:43:27.362Z,18.70
2017-10-09T04:45:54.869Z,19.70
2017-10-09T04:48:22.419Z,20.93
2017-10-09T04:50:50.001Z,21.93
2017-10-09T04:53:17.541Z,24.60
2017-10-09T04:55:45.066Z,23.87
2017-10-09T04:58:12.561Z,25.67
2017-10-09T05:00:40.129Z,26.93
2017-10-09T05:03:07.624Z,24.80
2017-10-09T05:05:35.197Z,27.33
2017-10-09T05:08:02.698Z,28.40
2017-10-09T05:10:30.227Z,28.47
2017-10-09T05:12:57.725Z,26.30
2017-10-09T05:15:26.026Z,26.50
2017-10-09T05:17:53.538Z,28.90
2017-10-09T05:20:21.078Z,26.60
2017-10-09T05:22:48.581Z,25.73
2017-10-09T05:25:16.130Z,27.47
2017-10-09T05:27:43.634Z,26.23
2017-10-09T05:30:11.142Z,27.67
2017-10-09T05:32:39.438Z,28.80
2017-10-09T05:35:06.947Z,26.63
2017-10-09T05:37:34.486Z,26.07
2017-10-09T05:40:01.993Z,28.13
2017-10-09T05:42:29.553Z,28.13
2017-10-09T05:44:57.046Z,28.33
2017-10-09T05:47:24.545Z,25.93
2017-10-09T05:49:52.849Z,29.37
2017-10-09T05:52:21.125Z,26.80
2017-10-09T05:54:48.679Z,25.43
2017-10-09T05:57:16.177Z,29.33
2017-10-09T05:59:44.477Z,25.40
2017-10-09T06:02:11.985Z,26.03
2017-10-09T06:04:39.517Z,25.80
2017-10-09T06:07:07.786Z,25.00
2017-10-09T06:09:35.337Z,27.00
2017-10-09T06:12:02.842Z,26.57
2017-10-09T06:14:31.110Z,26.43
2017-10-09T06:16:58.648Z,26.10
2017-10-09T06:19:26.154Z,21.93
2017-10-09T06:21:53.698Z,24.10
2017-10-09T06:24:21.217Z,25.60
2017-10-09T06:26:49.525Z,28.07
2017-10-09T06:29:17.033Z,25.97
2017-10-09T06:31:44.566Z,26.67
2017-10-09T06:34:12.078Z,26.23
2017-10-09T06:36:39.627Z,27.13
2017-10-09T06:39:07.122Z,26.07
2017-10-09T06:41:34.631Z,28.47
2017-10-09T06:44:02.165Z,29.03
2017-10-09T06:46:29.691Z,28.33
2017-10-09T06:48:57.989Z,28.77
2017-10-09T06:51:25.501Z,29.47
2017-10-09T06:53:53.050Z,30.83
2017-10-09T06:56:20.553Z,29.37
2017-10-09T06:58:48.120Z,27.10
2017-10-09T07:01:15.650Z,28.27
2017-10-09T07:03:43.163Z,29.93
2017-10-09T07:06:10.698Z,31.77
2017-10-09T07:08:38.201Z,29.20
2017-10-09T07:11:05.737Z,29.90
2017-10-09T07:13:33.402Z,29.30
2017-10-09T07:16:01.712Z,26.47
2017-10-09T07:18:29.236Z,26.90
2017-10-09T07:20:57.461Z,27.30
2017-10-09T07:23:24.989Z,26.90
2017-10-09T07:25:52.490Z,25.90
2017-10-09T07:28:20.017Z,26.77
2017-10-09T07:30:47.521Z,25.13
2017-10-09T07:33:15.833Z,24.93
2017-10-09T07:35:43.329Z,24.10
2017-10-09T07:38:10.834Z,24.30
2017-10-09T07:40:38.369Z,23.20
2017-10-09T07:43:05.868Z,24.20
2017-10-09T07:45:33.393Z,24.80
2017-10-09T07:48:00.903Z,25.80
2017-10-09T07:50:28.439Z,24.00
2017-10-09T07:52:55.938Z,24.10
2017-10-09T07:55:23.475Z,23.33
2017-10-09T07:57:50.978Z,23.63
2017-10-09T08:00:18.524Z,25.77
2017-10-09T08:02:46.037Z,22.67
2017-10-09T08:05:13.538Z,24.80
2017-10-09T08:07:41.077Z,23.20
2017-10-09T08:10:08.586Z,22.30
2017-10-09T08:12:36.890Z,20.20
2017-10-09T08:15:05.150Z,21.10
2017-10-09T08:17:32.688Z,22.57
2017-10-09T08:20:00.199Z,21.30
2017-10-09T08:22:27.741Z,20.33
2017-10-09T08:24:55.312Z,19.17
2017-10-09T08:27:22.814Z,20.13
2017-10-09T08:29:50.350Z,19.73
2017-10-09T08:32:17.858Z,20.90
2017-10-09T08:34:45.405Z,20.03
2017-10-09T08:37:12.909Z,18.93
2017-10-09T08:39:41.209Z,19.37
2017-10-09T08:42:09.485Z,19.10
2017-10-09T08:44:37.803Z,20.27
2017-10-09T08:47:05.311Z,18.53
2017-10-09T08:49:32.815Z,18.97
2017-10-09T08:52:00.350Z,19.37
2017-10-09T08:54:27.849Z,18.20
2017-10-09T08:56:55.385Z,18.17
2017-10-09T08:59:22.899Z,19.20
2017-10-09T09:01:50.450Z,16.90
2017-10-09T09:04:17.946Z,16.60
2017-10-09T09:06:45.450Z,17.03
2017-10-09T09:09:13.070Z,15.93
2017-10-09T09:11:40.570Z,14.87
2017-10-09T09:14:08.874Z,14.47
2017-10-09T09:16:36.374Z,16.00
2017-10-09T09:19:03.914Z,13.77
2017-10-09T09:21:32.181Z,14.60
2017-10-09T09:23:59.718Z,14.80
2017-10-09T09:26:27.219Z,14.57
2017-10-09T09:28:54.768Z,14.57
2017-10-09T09:31:22.275Z,14.00
2017-10-09T09:33:49.798Z,13.20
2017-10-09T09:36:17.347Z,15.40
2017-10-09T09:38:44.846Z,14.50
2017-10-09T09:41:12.382Z,12.97
2017-10-09T09:43:40.644Z,12.23
2017-10-09T09:46:08.178Z,11.50
2017-10-09T09:48:35.673Z,12.27
2017-10-09T09:51:03.213Z,11.77
2017-10-09T09:53:30.713Z,11.63
2017-10-09T09:55:58.215Z,11.50
2017-10-09T09:58:26.515Z,10.47
2017-10-09T10:00:54.023Z,9.93
2017-10-09T10:03:21.551Z,9.60
2017-10-09T10:05:49.809Z,7.70
2017-10-09T10:08:17.337Z,7.67
2017-10-09T10:10:44.834Z,7.03
2017-10-09T10:13:12.366Z,6.20
2017-10-09T10:15:39.869Z,6.47
2017-10-09T10:18:07.406Z,6.40
2017-10-09T10:20:35.726Z,6.47
2017-10-09T10:23:03.217Z,7.67
2017-10-09T10:25:30.753Z,7.27
2017-10-09T10:27:58.245Z,7.23
2017-10-09T10:30:25.769Z,6.53
2017-10-09T10:32:53.262Z,6.60
2017-10-09T10:35:21.558Z,5.80
2017-10-09T10:37:49.053Z,5.90
2017-10-09T10:40:16.578Z,5.80
2017-10-09T10:42:44.833Z,5.50
2017-10-09T10:45:12.381Z,6.53
2017-10-09T10:47:39.876Z,5.43
2017-10-09T10:50:07.406Z,5.50
2017-10-09T10:52:34.908Z,5.40
2017-10-09T10:55:02.445Z,4.20
2017-10-09T10:57:29.946Z,5.07
2017-10-09T10:59:57.433Z,4.73
2017-10-09T11:02:24.958Z,5.20
2017-10-09T11:04:52.451Z,5.20
2017-10-09T11:07:19.981Z,5.50
2017-10-09T11:09:48.238Z,5.10
2017-10-09T11:12:15.769Z,4.57
2017-10-09T11:14:43.286Z,4.70
2017-10-09T11:17:10.827Z,5.00
2017-10-09T11:19:38.313Z,4.60
2017-10-09T11:22:05.851Z,4.57
2017-10-09T11:24:33.341Z,5.10
2017-10-09T11:27:00.891Z,5.33
2017-10-09T11:29:29.184Z,4.00
2017-10-09T11:31:56.677Z,4.10
2017-10-09T11:34:24.202Z,4.80
2017-10-09T11:36:51.694Z,4.17
2017-10-09T11:39:19.220Z,4.13
2017-10-09T11:41:46.709Z,4.17
2017-10-09T11:44:14.973Z,4.20
2017-10-09T11:46:42.513Z,4.63
2017-10-09T11:49:10.005Z,5.00
2017-10-09T11:51:37.525Z,4.17
2017-10-09T11:54:05.779Z,4.80
2017-10-09T11:56:33.313Z,4.07
2017-10-09T11:59:00.861Z,4.40
2017-10-09T12:01:29.160Z,4.50
2017-10-09T12:03:56.657Z,4.87
2017-10-09T12:06:24.166Z,4.20
2017-10-09T12:08:51.694Z,4.90
2017-10-09T12:11:19.195Z,4.60
2017-10-09T12:13:46.725Z,4.27
2017-10-09T12:16:14.238Z,4.53
2017-10-09T12:18:41.766Z,4.57
2017-10-09T12:21:09.267Z,4.77
2017-10-09T12:23:36.802Z,4.27
2017-10-09T12:26:04.302Z,4.40
2017-10-09T12:28:31.806Z,4.30
2017-10-09T12:30:59.332Z,4.87
2017-10-09T12:33:26.837Z,7.87
2017-10-09T12:35:54.362Z,8.00
2017-10-09T12:38:22.623Z,4.30
2017-10-09T12:40:50.157Z,3.60
2017-10-09T12:43:17.645Z,3.10
2017-10-09T12:45:45.189Z,3.70
2017-10-09T12:48:12.689Z,3.33
2017-10-09T12:50:40.201Z,2.80
2017-10-09T12:53:07.736Z,2.90
2017-10-09T12:55:35.239Z,3.00
2017-10-09T12:58:03.529Z,2.93
2017-10-09T13:00:31.790Z,2.40
2017-10-09T13:02:59.321Z,2.47
2017-10-09T13:05:26.834Z,2.87
2017-10-09T13:07:54.362Z,3.40
2017-10-09T13:10:21.862Z,2.27
2017-10-09T13:12:49.390Z,2.80
2017-10-09T13:15:16.886Z,3.27
2017-10-09T13:17:44.390Z,2.80
2017-10-09T13:20:11.917Z,3.53
2017-10-09T13:22:39.418Z,2.90
2017-10-09T13:25:06.946Z,2.83
2017-10-09T13:27:35.197Z,3.10
2017-10-09T13:30:02.730Z,3.70
2017-10-09T13:32:30.279Z,2.87
2017-10-09T13:34:57.821Z,3.40
2017-10-09T13:37:25.346Z,3.00
2017-10-09T13:39:52.841Z,2.60
2017-10-09T13:42:20.370Z,2.93
2017-10-09T13:44:47.943Z,3.00
2017-10-09T13:47:15.483Z,2.70
2017-10-09T13:49:42.973Z,2.90
2017-10-09T13:52:11.271Z,3.43
2017-10-09T13:54:38.785Z,3.20
2017-10-09T13:57:06.424Z,3.50
2017-10-09T13:59:33.933Z,4.20
2017-10-09T14:02:01.438Z,3.90
2017-10-09T14:04:29.026Z,3.80
2017-10-09T14:06:56.525Z,3.97
2017-10-09T14:09:24.059Z,4.30
2017-10-09T14:11:52.318Z,6.90
2017-10-09T14:14:19.847Z,6.30
2017-10-09T14:16:47.353Z,9.57
2017-10-09T14:19:14.901Z,10.80
2017-10-09T14:21:42.402Z,10.00
2017-10-09T14:24:09.945Z,9.10
2017-10-09T14:26:37.469Z,9.53
2017-10-09T14:29:05.670Z,10.30
2017-10-09T14:41:24.468Z,11.47
2017-10-09T14:43:51.983Z,11.80
2017-10-09T14:46:19.559Z,10.77
2017-10-09T14:48:47.070Z,10.10
2017-10-09T14:51:15.496Z,11.13
2017-10-09T14:53:42.888Z,10.80
2017-10-09T14:56:10.392Z,11.70
2017-10-09T14:58:37.937Z,11.20
2017-10-09T15:01:05.444Z,10.30
2017-10-09T15:03:32.980Z,11.67
2017-10-09T15:06:00.473Z,9.90
2017-10-09T15:08:28.009Z,11.43
2017-10-09T15:10:55.516Z,10.77
2017-10-09T15:13:23.074Z,10.33
2017-10-09T15:15:50.588Z,9.70
2017-10-09T15:18:18.083Z,10.33
2017-10-09T15:20:45.654Z,10.97
2017-10-09T15:23:14.180Z,11.03
2017-10-09T15:25:41.751Z,10.37
2017-10-09T15:28:09.251Z,10.63
2017-10-09T15:30:36.787Z,10.10
2017-10-09T15:33:04.326Z,10.40
2017-10-09T15:35:31.850Z,9.97
2017-10-09T15:37:59.582Z,9.20
2017-10-09T15:40:27.445Z,11.30
2017-10-09T15:42:55.054Z,9.77
2017-10-09T15:45:22.577Z,11.13
2017-10-09T15:47:50.158Z,10.37
2017-10-09T15:50:17.739Z,11.90
2017-10-09T15:52:45.293Z,9.47
2017-10-09T15:55:12.835Z,10.10
2017-10-09T15:57:41.081Z,10.70
2017-10-09T16:00:08.602Z,10.20
2017-10-09T16:05:09.514Z,10.70
2017-10-09T16:07:37.906Z,10.03
2017-10-09T16:10:06.270Z,11.37
2017-10-09T16:12:34.030Z,11.50
2017-10-09T16:15:01.624Z,10.90
2017-10-09T16:17:29.758Z,11.00
2017-10-09T16:19:58.995Z,12.40
2017-10-09T16:22:27.065Z,12.63
2017-10-09T16:24:55.706Z,12.20
2017-10-09T16:27:24.670Z,11.60
2017-10-09T16:29:53.632Z,11.47
2017-10-09T16:32:23.033Z,13.23
2017-10-09T16:34:52.978Z,13.37
2017-10-09T16:37:24.423Z,12.70
2017-10-09T16:39:56.464Z,12.63
2017-10-09T16:42:24.000Z,13.57
2017-10-09T16:44:53.072Z,13.20
2017-10-09T16:47:20.695Z,15.03
2017-10-09T16:49:48.969Z,14.70
2017-10-09T16:52:16.538Z,12.83
2017-10-09T16:54:44.043Z,12.80
2017-10-09T16:57:11.598Z,12.90
2017-10-09T16:59:39.866Z,13.43
2017-10-09T17:02:07.429Z,13.00
2017-10-09T17:04:34.933Z,13.27
2017-10-09T17:07:02.459Z,13.70
2017-10-09T17:09:30.002Z,15.50
2017-10-09T17:11:57.502Z,10.93
2017-10-09T17:14:25.038Z,11.13
2017-10-09T17:16:52.551Z,11.27
2017-10-09T17:19:20.112Z,10.87
2017-10-09T17:21:47.659Z,12.03
2017-10-09T17:24:15.213Z,11.20
2017-10-09T17:26:42.722Z,12.13
2017-10-09T17:29:10.309Z,11.90
2017-10-09T17:31:37.815Z,11.50
2017-10-09T17:34:06.236Z,9.80
2017-10-09T17:36:33.757Z,10.10
2017-10-09T17:39:01.259Z,13.07
2017-10-09T17:41:28.791Z,11.60
2017-10-09T17:43:56.319Z,16.53
2017-10-09T17:46:24.789Z,13.87
2017-10-09T17:48:54.788Z,16.60
2017-10-09T17:51:22.614Z,12.43
2017-10-09T17:53:50.190Z,12.47
2017-10-09T17:56:17.744Z,12.87
2017-10-09T17:58:46.009Z,15.50
2017-10-09T18:01:13.565Z,15.67
2017-10-09T18:03:41.097Z,14.00
2017-10-09T18:06:08.639Z,22.53
2017-10-09T18:08:36.197Z,20.23
2017-10-09T18:11:03.701Z,22.70
2017-10-09T18:13:31.266Z,21.27
2017-10-09T18:15:58.785Z,18.33
2017-10-09T18:18:26.329Z,16.13
2017-10-09T18:20:53.838Z,16.90
2017-10-09T18:23:21.392Z,12.10
2017-10-09T18:25:48.908Z,11.30
2017-10-09T18:28:16.863Z,8.40
2017-10-09T18:30:44.388Z,8.23
2017-10-09T18:33:12.766Z,8.87
2017-10-09T18:35:40.329Z,8.20
2017-10-09T18:38:07.835Z,8.60
2017-10-09T18:40:35.378Z,8.10
2017-10-09T18:43:03.643Z,7.80
2017-10-09T18:45:32.346Z,8.45
2017-10-09T18:48:01.538Z,8.20
2017-10-09T18:50:30.723Z,8.40
2017-10-09T18:53:00.011Z,9.83
2017-10-09T18:55:27.679Z,8.20
2017-10-09T18:57:55.221Z,8.60
2017-10-09T19:00:22.860Z,10.77
2017-10-09T19:03:04.179Z,9.40
2017-10-09T19:05:32.124Z,12.37
2017-10-09T19:07:59.950Z,11.83
2017-10-09T19:10:29.352Z,10.27
2017-10-09T19:12:56.973Z,10.83
2017-10-09T19:15:25.411Z,11.23
2017-10-09T19:17:53.776Z,11.43
2017-10-09T19:20:22.107Z,10.60
2017-10-09T19:22:50.235Z,11.00
2017-10-09T19:25:17.877Z,11.50
2017-10-09T19:27:45.519Z,13.00
2017-10-09T19:30:13.185Z,11.93
2017-10-09T19:32:41.269Z,11.17
2017-10-09T19:35:08.886Z,12.93
2017-10-09T19:37:36.570Z,12.33
2017-10-09T19:40:04.134Z,11.77
2017-10-09T19:42:31.762Z,10.77
2017-10-09T19:44:59.346Z,10.87
2017-10-09T19:47:27.504Z,9.50
2017-10-09T19:49:55.086Z,10.90
2017-10-09T19:52:24.506Z,9.97
2017-10-09T19:54:53.437Z,11.93
2017-10-09T19:57:24.184Z,11.83
2017-10-09T19:59:53.343Z,13.30
2017-10-09T20:02:25.213Z,10.97
2017-10-09T20:04:52.906Z,13.10
2017-10-09T20:07:22.774Z,13.07
2017-10-09T20:09:55.025Z,13.07
2017-10-09T20:12:24.100Z,12.70
2017-10-09T20:14:54.004Z,12.03
2017-10-09T20:17:21.584Z,11.90
2017-10-09T20:19:49.090Z,11.43
2017-10-09T20:22:16.650Z,12.97
2017-10-09T20:24:44.304Z,14.03
2017-10-09T20:27:11.866Z,11.77
2017-10-09T20:29:39.708Z,12.30
2017-10-09T20:32:07.358Z,12.33
2017-10-09T20:34:35.229Z,11.80
2017-10-09T20:37:03.187Z,12.17
2017-10-09T20:39:31.050Z,12.23
2017-10-09T20:41:59.037Z,12.57
2017-10-09T20:44:26.638Z,12.47
2017-10-09T20:46:54.541Z,12.67
2017-10-09T20:49:22.314Z,12.80
2017-10-09T20:51:50.259Z,14.30
2017-10-09T20:54:17.957Z,13.23
2017-10-09T20:56:45.852Z,14.67
2017-10-09T20:59:13.391Z,13.70
2017-10-09T21:01:44.038Z,15.50
2017-10-09T21:04:11.931Z,14.80
2017-10-09T21:06:39.590Z,12.10
2017-10-09T21:09:07.262Z,13.00
2017-10-09T21:11:35.955Z,12.90
2017-10-09T21:14:03.791Z,14.70
2017-10-09T21:16:32.232Z,14.57
2017-10-09T21:19:00.190Z,13.63
2017-10-09T21:21:27.958Z,15.50
2017-10-09T21:23:55.515Z,12.00
2017-10-09T21:26:24.433Z,11.53
2017-10-09T21:28:53.503Z,13.67
2017-10-09T21:31:21.356Z,12.70
2017-10-09T21:33:49.277Z,12.60
2017-10-09T21:36:17.214Z,11.80
2017-10-09T21:38:45.038Z,11.30
2017-10-09T21:41:12.600Z,11.07
2017-10-09T21:43:40.276Z,11.57
2017-10-09T21:46:08.134Z,11.07
2017-10-09T21:48:35.936Z,11.87
2017-10-09T21:51:04.127Z,11.27
2017-10-09T21:53:31.882Z,9.40
2017-10-09T21:55:59.398Z,11.03
2017-10-09T21:58:27.712Z,12.50
2017-10-09T22:00:55.848Z,9.63
2017-10-09T22:03:23.637Z,10.47
2017-10-09T22:05:57.000Z,8.93
2017-10-09T22:08:25.291Z,10.07
2017-10-09T22:10:53.017Z,9.03
2017-10-09T22:13:20.737Z,9.57
2017-10-09T22:15:55.823Z,9.13
2017-10-09T22:18:23.871Z,9.67
2017-10-09T22:21:01.496Z,9.10
2017-10-09T22:23:31.398Z,8.20
2017-10-09T22:26:16.330Z,8.33
2017-10-09T22:28:45.101Z,9.20
2017-10-09T22:31:12.647Z,9.83
2017-10-09T22:33:40.166Z,9.23
2017-10-09T22:36:07.730Z,9.70
2017-10-09T22:38:35.249Z,9.87
2017-10-09T22:41:03.565Z,10.43
2017-10-09T22:43:31.095Z,9.73
2017-10-09T22:45:58.638Z,9.90
2017-10-09T22:48:26.143Z,8.37
2017-10-09T22:50:53.691Z,8.27
2017-10-09T22:53:21.229Z,8.07
2017-10-09T22:55:48.746Z,8.93
2017-10-09T22:58:16.299Z,7.63
2017-10-09T23:00:43.822Z,8.70
2017-10-09T23:03:11.362Z,7.83
2017-10-09T23:05:39.648Z,8.50
2017-10-09T23:08:07.202Z,7.77
2017-10-09T23:10:34.711Z,8.23
2017-10-09T23:13:02.272Z,8.37
2017-10-09T23:15:29.786Z,8.10
2017-10-09T23:17:57.290Z,7.47
2017-10-09T23:20:24.833Z,8.30
2017-10-09T23:22:52.347Z,7.90
2017-10-09T23:25:19.898Z,8.50
2017-10-09T23:27:47.411Z,8.40
2017-10-09T23:30:14.966Z,6.90
2017-10-09T23:32:42.491Z,7.90
2017-10-09T23:35:10.036Z,7.30
2017-10-09T23:37:37.547Z,8.73
2017-10-09T23:40:05.102Z,6.83
2017-10-09T23:42:32.617Z,7.30
2017-10-09T23:45:00.142Z,7.20
2017-10-09T23:47:27.692Z,7.00
2017-10-09T23:49:55.978Z,7.50
2017-10-09T23:52:23.517Z,7.50
2017-10-09T23:54:51.059Z,7.27
2017-10-09T23:57:18.785Z,7.53
2017-10-09T23:59:46.326Z,7.40
